Helen D. Coppedge — WCA5274 — position and weather

sailwx.info

Track history (hours):
 
Tides and Currents Weather Stations Pressure Air Temp Water Temp Dewpoint Dewpoint Depression Visibility Wind Speed Wind Dir Waves Ship Positions

Helen D. Coppedge

Owner: MORAN TOWING CORPORATION, Philadelphia, PA. More information available from US FCC via Universal Licensing System and Coast Guard Vessel Documentation Center.

Last reported at 2016-Aug-28 11:25 UTC. Time now 2016-Aug-28 16:40 UTC.
Position N 40°48' W 073°59'.

Length 30 m; draft 4 m.

Type: Tug. MMSI: 367177370.

Date/timePositionNaut miles runAvg speedWind from/ knotsBaromVisibWave heightAir tempDewpointWater temp
2016-Aug-28 11:25N 40°48' W 073°59'7 8.3
2016-Aug-28 10:34N 40°42' W 074°02'2 2.2
2016-Aug-28 09:33N 40°39' W 074°02'0 0.0
2016-Aug-28 08:33N 40°39' W 074°02'3 3.0
2016-Aug-28 07:34N 40°42' W 074°02'  
2016-Aug-25 15:24N 40°47' W 073°59'4 4.4
2016-Aug-25 14:33N 40°44' W 074°01'4 3.7
2016-Aug-25 13:33N 40°40' W 074°02'1 1.0
2016-Aug-25 12:33N 40°39' W 074°02'0 0.3
2016-Aug-25 11:33N 40°39' W 074°02'6 6.4
2016-Aug-25 10:33N 40°46' W 074°01'2 0.1
2016-Aug-24 06:33N 40°48' W 073°59'11 2.5
2016-Aug-24 02:22N 40°39' W 074°07'3 4.3
2016-Aug-24 01:33N 40°39' W 074°02'1 1.4
2016-Aug-24 00:33N 40°41' W 074°02'  
2016-Aug-21 20:08N 40°47' W 074°00'3 4.9
2016-Aug-21 19:33N 40°44' W 074°01'5 4.6
2016-Aug-21 18:33N 40°39' W 074°02'0 0.0
2016-Aug-21 17:33N 40°39' W 074°02'0 0.3
2016-Aug-21 16:33N 40°40' W 074°02'3 3.3
2016-Aug-21 15:33N 40°43' W 074°01'  
Track history (hours):
 
Tides and Currents Weather Stations Pressure Air Temp Water Temp Dewpoint Dewpoint Depression Visibility Wind Speed Wind Dir Waves Ship Positions

Helen D. Coppedge

Owner: MORAN TOWING CORPORATION, Philadelphia, PA. More information available from US FCC via Universal Licensing System and Coast Guard Vessel Documentation Center.

Last reported at 2016-Aug-28 11:25 UTC. Time now 2016-Aug-28 16:40 UTC.
Position N 40°48' W 073°59'.

Length 30 m; draft 4 m.

Type: Tug. MMSI: 367177370.

Date/timePositionNaut miles runAvg speedWind from/ knotsBaromVisibWave heightAir tempDewpointWater temp
2016-Aug-28 11:25N 40°48' W 073°59'7 8.3
2016-Aug-28 10:34N 40°42' W 074°02'2 2.2
2016-Aug-28 09:33N 40°39' W 074°02'0 0.0
2016-Aug-28 08:33N 40°39' W 074°02'3 3.0
2016-Aug-28 07:34N 40°42' W 074°02'  
2016-Aug-25 15:24N 40°47' W 073°59'4 4.4
2016-Aug-25 14:33N 40°44' W 074°01'4 3.7
2016-Aug-25 13:33N 40°40' W 074°02'1 1.0
2016-Aug-25 12:33N 40°39' W 074°02'0 0.3
2016-Aug-25 11:33N 40°39' W 074°02'6 6.4
2016-Aug-25 10:33N 40°46' W 074°01'2 0.1
2016-Aug-24 06:33N 40°48' W 073°59'11 2.5
2016-Aug-24 02:22N 40°39' W 074°07'3 4.3
2016-Aug-24 01:33N 40°39' W 074°02'1 1.4
2016-Aug-24 00:33N 40°41' W 074°02'  
2016-Aug-21 20:08N 40°47' W 074°00'3 4.9
2016-Aug-21 19:33N 40°44' W 074°01'5 4.6
2016-Aug-21 18:33N 40°39' W 074°02'0 0.0
2016-Aug-21 17:33N 40°39' W 074°02'0 0.3
2016-Aug-21 16:33N 40°40' W 074°02'3 3.3
2016-Aug-21 15:33N 40°43' W 074°01'  

Dump ship's entire track history